Time;durP1;ratioP1;P1;durP2;ratioP2;P2;SDS_P1;SDS_P2;PMS_P1;PMS_P2;Temp;Humidity;BMP_temperature;BMP_pressure;BME280_temperature;BME280_humidity;BME280_pressure;Samples;Min_cycle;Max_cycle;Signal;HPM_P1;HPM_P2
2021/03/24 00:04:17;;;;;;;17.50;11.07;;;;;;;4.04;67.32;100079.55;471663;1168;113858;-64
2021/03/24 00:14:20;;;;;;;19.03;13.33;;;;;;;4.02;67.26;100087.38;471880;1168;114950;-65
2021/03/24 00:24:25;;;;;;;16.73;8.67;;;;;;;3.99;67.40;100078.84;471880;1167;114359;-65
2021/03/24 00:34:29;;;;;;;21.20;12.53;;;;;;;3.95;67.86;100087.60;471815;1170;114916;-65
2021/03/24 00:44:32;;;;;;;25.13;16.23;;;;;;;3.90;67.94;100085.13;471768;1168;114030;-65
2021/03/24 00:54:36;;;;;;;12.03;8.37;;;;;;;3.92;68.02;100086.80;471542;1168;115113;-65
2021/03/24 01:04:40;;;;;;;13.33;8.33;;;;;;;3.96;68.30;100084.97;471632;1170;114267;-66
2021/03/24 01:14:44;;;;;;;10.80;7.15;;;;;;;3.93;67.71;100090.27;471698;1171;113789;-66
2021/03/24 01:24:47;;;;;;;13.00;7.70;;;;;;;3.91;68.27;100092.89;471860;1169;113812;-65
2021/03/24 01:34:51;;;;;;;10.73;7.57;;;;;;;3.88;67.89;100095.59;471836;1169;114350;-65
2021/03/24 01:45:01;;;;;;;11.30;6.80;;;;;;;3.83;68.14;100100.05;471666;1168;114026;-65
2021/03/24 01:55:07;;;;;;;11.10;7.87;;;;;;;3.83;68.37;100087.05;472003;1168;114045;-66
2021/03/24 02:05:12;;;;;;;16.30;9.13;;;;;;;3.77;69.05;100093.27;471541;1168;114096;-66
2021/03/24 02:15:20;;;;;;;17.07;10.57;;;;;;;3.70;68.92;100102.16;471899;1168;114193;-65
2021/03/24 02:25:30;;;;;;;14.43;10.00;;;;;;;3.67;69.05;100094.42;471810;1168;113974;-65
2021/03/24 02:35:37;;;;;;;14.07;8.47;;;;;;;3.66;69.28;100090.13;471792;1168;114379;-65
2021/03/24 02:45:45;;;;;;;11.83;7.58;;;;;;;3.64;69.44;100091.91;471780;1169;114952;-65
2021/03/24 02:55:49;;;;;;;13.73;8.07;;;;;;;3.63;69.33;100103.20;471969;1169;114922;-66
2021/03/24 03:05:56;;;;;;;10.37;7.73;;;;;;;3.61;69.66;100097.20;471846;1170;114563;-66
2021/03/24 03:16:05;;;;;;;23.17;9.37;;;;;;;3.62;69.39;100107.53;472144;1170;113802;-65
2021/03/24 03:26:12;;;;;;;16.07;8.60;;;;;;;3.61;69.33;100104.99;472031;1170;114173;-64
2021/03/24 03:36:15;;;;;;;16.10;8.20;;;;;;;3.52;69.76;100100.91;472009;1168;115270;-65
2021/03/24 03:46:24;;;;;;;19.20;9.60;;;;;;;3.41;69.96;100098.58;472534;1168;114120;-64
2021/03/24 03:56:33;;;;;;;12.80;8.90;;;;;;;3.41;69.97;100089.95;472010;1168;114190;-65
2021/03/24 04:06:41;;;;;;;12.97;8.47;;;;;;;3.38;70.00;100097.80;471841;1169;113962;-65
2021/03/24 04:16:46;;;;;;;12.43;8.10;;;;;;;3.35;70.04;100099.59;472185;1170;114305;-65
2021/03/24 04:26:55;;;;;;;14.93;9.60;;;;;;;3.31;70.31;100112.68;471867;1168;113798;-65
2021/03/24 04:37:03;;;;;;;16.13;9.57;;;;;;;3.27;70.36;100117.09;472181;1168;114117;-65
2021/03/24 04:47:18;;;;;;;17.00;10.60;;;;;;;3.27;70.53;100127.48;472847;1168;114067;-65
2021/03/24 04:57:26;;;;;;;22.67;11.43;;;;;;;3.30;70.69;100130.02;472384;1169;114319;-65
2021/03/24 05:07:36;;;;;;;16.10;12.20;;;;;;;3.32;70.99;100130.83;472139;1168;114451;-66
2021/03/24 05:17:42;;;;;;;17.60;11.70;;;;;;;3.37;70.87;100141.09;471995;1167;114389;-65
2021/03/24 05:27:50;;;;;;;16.83;12.27;;;;;;;3.42;70.78;100140.98;472307;1168;114149;-65
2021/03/24 05:37:54;;;;;;;18.03;13.70;;;;;;;3.48;70.80;100154.66;472123;1168;114651;-66
2021/03/24 05:48:29;;;;;;;21.80;14.87;;;;;;;3.57;70.75;100150.96;472069;1168;114337;-66
2021/03/24 05:58:42;;;;;;;23.83;15.63;;;;;;;3.77;70.59;100141.80;471765;1168;114394;-66
2021/03/24 06:09:08;;;;;;;26.70;16.53;;;;;;;3.96;70.31;100156.86;471829;1167;114413;-66
2021/03/24 06:19:25;;;;;;;24.85;14.85;;;;;;;4.24;69.97;100159.54;471937;1168;114727;-67
2021/03/24 06:29:55;;;;;;;20.68;13.58;;;;;;;4.48;69.38;100159.72;471832;1168;114091;-65
2021/03/24 06:40:21;;;;;;;19.97;13.77;;;;;;;4.68;69.26;100164.34;471664;1168;114152;-70
2021/03/24 06:51:02;;;;;;;22.83;14.23;;;;;;;4.89;69.07;100169.76;471829;1170;113959;-66
2021/03/24 07:01:49;;;;;;;24.03;14.43;;;;;;;5.25;68.96;100177.33;472008;1168;114230;-66
2021/03/24 07:12:06;;;;;;;20.23;11.70;;;;;;;5.49;67.64;100176.55;471914;1168;114825;-64
2021/03/24 07:22:21;;;;;;;26.73;13.33;;;;;;;5.89;67.60;100178.63;487142;1168;114292;-64
2021/03/24 07:32:36;;;;;;;19.30;12.83;;;;;;;6.26;66.49;100188.67;474240;1170;114379;-64
2021/03/24 07:42:49;;;;;;;21.37;11.80;;;;;;;6.68;66.30;100208.00;471847;1168;114718;-65
2021/03/24 07:53:25;;;;;;;20.10;12.15;;;;;;;6.64;64.97;100206.42;471943;1169;114281;-66
2021/03/24 08:03:35;;;;;;;20.00;11.07;;;;;;;6.72;65.28;100197.38;471945;1168;114109;-60
2021/03/24 08:14:04;;;;;;;17.40;10.50;;;;;;;7.31;64.14;100196.86;472172;1168;115459;-61
2021/03/24 08:24:20;;;;;;;16.17;10.13;;;;;;;7.71;62.81;100205.64;472272;1168;115280;-59
2021/03/24 08:34:45;;;;;;;16.40;10.77;;;;;;;7.54;62.25;100203.73;472000;1168;114288;-61
2021/03/24 08:44:55;;;;;;;33.30;11.73;;;;;;;7.42;61.59;100202.49;472037;1168;114128;-61
2021/03/24 08:55:35;;;;;;;10.53;8.23;;;;;;;7.34;61.24;100201.11;471864;1168;114083;-61
2021/03/24 09:05:45;;;;;;;14.60;9.07;;;;;;;7.48;60.87;100190.94;471350;1169;113920;-62
2021/03/24 09:16:29;;;;;;;16.37;9.03;;;;;;;8.11;59.82;100192.60;472312;1168;114261;-62
2021/03/24 09:27:01;;;;;;;21.07;8.07;;;;;;;8.36;58.67;100195.90;471237;1169;113779;-59
2021/03/24 09:37:08;;;;;;;18.60;9.53;;;;;;;8.54;58.06;100194.24;471905;1171;113806;-60
2021/03/24 09:47:30;;;;;;;11.15;7.30;;;;;;;8.40;57.76;100189.59;472189;1168;114538;-61
2021/03/24 09:57:59;;;;;;;17.50;8.37;;;;;;;8.37;57.56;100182.77;471777;1168;113917;-63
2021/03/24 10:08:12;;;;;;;12.00;8.33;;;;;;;7.81;57.74;100173.88;472505;1168;116726;-63
2021/03/24 10:18:23;;;;;;;10.03;8.28;;;;;;;7.36;58.03;100167.93;456341;1166;20001731;-62
2021/03/24 10:28:39;;;;;;;10.90;7.50;;;;;;;7.39;58.37;100168.66;471350;1168;114618;-63
2021/03/24 10:38:49;;;;;;;12.43;7.70;;;;;;;7.70;58.01;100169.13;471637;1168;113935;-65
2021/03/24 10:48:59;;;;;;;13.73;7.13;;;;;;;7.95;57.53;100161.04;471305;1170;113879;-64
2021/03/24 10:59:14;;;;;;;11.10;6.97;;;;;;;7.84;56.97;100156.30;471542;1170;114417;-64
2021/03/24 11:09:23;;;;;;;9.13;6.03;;;;;;;8.07;56.79;100148.34;471630;1168;114901;-64
2021/03/24 11:19:31;;;;;;;7.90;6.13;;;;;;;7.78;56.74;100148.70;471510;1170;114420;-65
2021/03/24 11:29:45;;;;;;;8.90;7.20;;;;;;;7.68;56.96;100142.20;471495;1166;114260;-65
2021/03/24 11:39:54;;;;;;;13.85;9.55;;;;;;;7.46;57.25;100139.64;471584;1167;114356;-63
2021/03/24 11:50:07;;;;;;;13.73;8.77;;;;;;;7.01;58.10;100143.19;471443;1168;114602;-64
2021/03/24 12:00:33;;;;;;;11.90;8.13;;;;;;;6.83;58.59;100141.30;471529;1168;114059;-66
2021/03/24 12:10:40;;;;;;;10.30;8.07;;;;;;;6.77;58.27;100138.95;471764;1167;114220;-62
2021/03/24 12:20:56;;;;;;;12.70;9.70;;;;;;;6.84;58.03;100133.42;471504;1169;114219;-63
2021/03/24 12:31:06;;;;;;;13.37;8.73;;;;;;;7.11;58.07;100122.77;471581;1168;166408;-62
2021/03/24 12:41:10;;;;;;;14.00;8.60;;;;;;;7.65;57.63;100117.05;471639;1167;113942;-64
2021/03/24 12:51:17;;;;;;;14.03;9.37;;;;;;;7.84;56.73;100116.21;471379;1170;114206;-62
2021/03/24 13:01:34;;;;;;;13.57;9.27;;;;;;;7.93;56.86;100114.98;471313;1169;114506;-62
2021/03/24 13:11:51;;;;;;;14.93;9.67;;;;;;;7.96;56.61;100115.70;475383;1169;113960;-62
2021/03/24 13:22:04;;;;;;;12.63;8.93;;;;;;;7.47;56.90;100115.20;473500;1170;114324;-62
2021/03/24 13:32:13;;;;;;;13.43;10.30;;;;;;;7.41;57.21;100111.09;471906;1170;114631;-63
2021/03/24 13:42:26;;;;;;;17.50;11.30;;;;;;;7.34;57.58;100105.28;472406;1170;114375;-62
2021/03/24 13:52:49;;;;;;;16.73;12.03;;;;;;;7.19;57.84;100104.16;472190;1169;114517;-61
2021/03/24 14:03:15;;;;;;;17.35;11.25;;;;;;;7.22;57.92;100103.19;472064;1170;114086;-63
2021/03/24 14:13:36;;;;;;;;;;;;;;;6.86;57.71;100099.41;472294;1168;114206;-63
2021/03/24 14:23:51;;;;;;;14.50;11.35;;;;;;;6.98;57.78;100095.46;472257;1168;101077;-60
2021/03/24 14:34:12;;;;;;;18.97;11.07;;;;;;;7.12;57.90;100100.13;472594;1169;114144;-63
2021/03/24 14:44:46;;;;;;;14.97;11.10;;;;;;;7.12;58.00;100094.91;472207;1168;114503;-61
2021/03/24 14:54:56;;;;;;;16.20;11.70;;;;;;;7.22;58.14;100082.30;471737;1169;114542;-62
2021/03/24 15:05:23;;;;;;;18.80;14.37;;;;;;;7.14;58.50;100080.02;472083;1168;115090;-63
2021/03/24 15:15:51;;;;;;;23.85;13.80;;;;;;;6.85;58.42;100080.30;464056;1170;10001920;-65
2021/03/24 15:26:01;;;;;;;17.48;10.65;;;;;;;6.62;58.24;100083.83;471630;1168;114721;-64
2021/03/24 15:36:10;;;;;;;14.93;10.37;;;;;;;6.42;58.33;100082.00;471387;1170;114420;-63
2021/03/24 15:46:23;;;;;;;30.63;16.37;;;;;;;6.29;58.90;100079.88;471568;1168;114330;-64
2021/03/24 15:57:05;;;;;;;20.77;12.00;;;;;;;6.16;59.50;100071.66;471631;1168;114418;-63
2021/03/24 16:07:15;;;;;;;22.85;12.55;;;;;;;6.05;59.41;100076.43;477906;1168;114945;-73
2021/03/24 16:17:33;;;;;;;23.53;13.40;;;;;;;5.84;59.70;100067.63;472236;1168;114204;-68
2021/03/24 16:27:45;;;;;;;26.20;13.15;;;;;;;5.66;61.03;100077.83;472180;1168;114677;-63
2021/03/24 16:37:57;;;;;;;20.75;14.65;;;;;;;5.54;60.84;100070.42;464377;1168;10001350;-67
2021/03/24 16:48:44;;;;;;;24.13;15.23;;;;;;;5.40;61.46;100079.58;472147;1168;114859;-60
2021/03/24 16:58:54;;;;;;;26.78;15.25;;;;;;;5.33;61.68;100078.11;472062;1167;113957;-64
2021/03/24 17:09:07;;;;;;;31.13;15.53;;;;;;;5.23;62.83;100084.53;471785;1168;114516;-65
2021/03/24 17:19:19;;;;;;;30.30;15.93;;;;;;;5.13;62.48;100090.05;471919;1170;114820;-68
2021/03/24 17:29:26;;;;;;;23.20;14.50;;;;;;;5.13;62.88;100091.78;472035;1168;114100;-67
2021/03/24 17:39:44;;;;;;;27.73;17.50;;;;;;;5.11;63.26;100094.45;471051;1167;115063;-67
2021/03/24 17:49:56;;;;;;;28.03;18.77;;;;;;;5.05;63.88;100084.23;471839;1168;114464;-67
2021/03/24 18:00:22;;;;;;;28.85;16.65;;;;;;;4.95;63.57;100090.64;471706;1168;114492;-68
2021/03/24 18:10:35;;;;;;;29.00;19.80;;;;;;;4.87;64.54;100089.16;471538;1169;113901;-66
2021/03/24 18:20:40;;;;;;;34.37;22.33;;;;;;;4.84;64.46;100077.99;472032;1168;113880;-67
2021/03/24 18:30:59;;;;;;;39.77;23.03;;;;;;;4.81;65.16;100078.94;471952;1168;114304;-63
2021/03/24 18:41:04;;;;;;;56.75;30.35;;;;;;;4.81;65.14;100071.13;472087;1167;114604;-63
2021/03/24 18:51:27;;;;;;;78.80;40.73;;;;;;;4.79;65.22;100075.53;471536;1170;113904;-62
2021/03/24 19:01:37;;;;;;;73.80;38.50;;;;;;;4.79;65.55;100078.14;472166;1168;114335;-64
2021/03/24 19:11:43;;;;;;;51.77;28.23;;;;;;;4.79;65.53;100074.67;472034;1168;114330;-63
2021/03/24 19:21:49;;;;;;;81.57;40.17;;;;;;;4.75;66.57;100076.55;471644;1170;114431;-63
2021/03/24 19:31:53;;;;;;;50.00;27.60;;;;;;;4.78;66.15;100066.03;471659;1168;113937;-63
2021/03/24 19:42:16;;;;;;;35.60;26.75;;;;;;;4.73;66.74;100073.98;471332;1168;114714;-63
2021/03/24 19:52:21;;;;;;;38.57;25.67;;;;;;;4.64;66.62;100071.67;471471;1169;115185;-63
2021/03/24 20:02:34;;;;;;;37.80;26.07;;;;;;;4.66;66.63;100074.23;471979;1170;114092;-63
2021/03/24 20:12:48;;;;;;;139.15;64.10;;;;;;;4.61;67.38;100064.80;471724;1168;114512;-63
2021/03/24 20:22:54;;;;;;;74.10;40.13;;;;;;;4.64;67.29;100076.88;471428;1169;114280;-63
2021/03/24 20:33:04;;;;;;;51.60;29.87;;;;;;;4.63;67.85;100086.45;471474;1168;113939;-64
2021/03/24 20:43:23;;;;;;;54.23;31.20;;;;;;;4.64;67.80;100076.88;471735;1168;114173;-65
2021/03/24 20:53:26;;;;;;;48.85;31.85;;;;;;;4.59;67.67;100079.61;472053;1167;114139;-67
2021/03/24 21:03:34;;;;;;;47.17;29.70;;;;;;;4.57;67.97;100084.02;472294;1168;114225;-67
2021/03/24 21:13:39;;;;;;;56.30;31.93;;;;;;;4.59;68.29;100079.61;472140;1168;114414;-65
2021/03/24 21:23:43;;;;;;;56.40;33.07;;;;;;;4.52;68.26;100074.66;471706;1168;114691;-65
2021/03/24 21:33:48;;;;;;;72.70;42.83;;;;;;;4.49;68.48;100071.27;471497;1168;114548;-68
2021/03/24 21:43:53;;;;;;;56.10;34.13;;;;;;;4.48;68.42;100071.30;471396;1168;114205;-63
2021/03/24 21:53:58;;;;;;;51.10;30.20;;;;;;;4.44;67.67;100075.73;472527;1168;114354;-63
2021/03/24 22:04:06;;;;;;;45.93;26.60;;;;;;;4.40;67.77;100078.50;472021;1168;114052;-63
2021/03/24 22:14:28;;;;;;;70.33;40.80;;;;;;;4.39;67.66;100079.41;471333;1170;114414;-67
2021/03/24 22:24:32;;;;;;;53.87;31.77;;;;;;;4.36;67.84;100075.14;471555;1168;114266;-63
2021/03/24 22:34:41;;;;;;;52.07;28.80;;;;;;;4.35;67.88;100074.28;471869;1167;114396;-62
2021/03/24 22:44:47;;;;;;;53.23;33.07;;;;;;;4.42;68.30;100066.30;472231;1168;114734;-63
2021/03/24 22:55:00;;;;;;;50.17;30.77;;;;;;;4.42;67.42;100069.73;471550;1169;115112;-64
2021/03/24 23:05:06;;;;;;;53.90;30.93;;;;;;;4.39;67.86;100066.41;471788;1170;115390;-63
2021/03/24 23:15:14;;;;;;;68.87;41.23;;;;;;;4.36;67.74;100054.34;471949;1171;113956;-62
2021/03/24 23:25:20;;;;;;;68.70;39.30;;;;;;;4.27;67.69;100049.42;471892;1169;115328;-63
2021/03/24 23:35:28;;;;;;;68.30;39.57;;;;;;;4.24;68.05;100047.75;472045;1170;114483;-63
2021/03/24 23:45:31;;;;;;;57.80;35.53;;;;;;;4.24;67.99;100042.55;471738;1169;114487;-66
2021/03/24 23:55:40;;;;;;;58.47;34.80;;;;;;;4.20;67.59;100036.59;472376;1168;114290;-66
